Home > Products > Valid Products > MTR

000
SAUS43 KUNR 101458
MTR2WX
METAR K2WX 101456Z AUTO 30013KT 06/M04 A2981 RMK AO1 SLP115
T00561044 53009





000
SAUS43 KUNR 101457
MTRD07
METAR KD07 101456Z AUTO 29016KT 04/M04 A2983 RMK AO1 SLP124
T00391039 56006





000
SAUS43 KUNR 101358
MTR2WX
METAR K2WX 101356Z AUTO 26010KT 02/M05 A2980 RMK AO1 SLP111
T00221050





000
SAUS43 KUNR 101357
MTRD07
METAR KD07 101356Z AUTO 28012KT 01/M04 A2983 RMK AO1 SLP126
T00111039





000
SAUS43 KUNR 101258
MTR2WX
METAR K2WX 101256Z AUTO 29017KT 04/M04 A2979 RMK AO1 SLP103
T00391039





000
SAUS43 KUNR 101258
MTR2WX
METAR K2WX 101256Z AUTO 29017KT 04/M04 A2979 RMK AO1 SLP103
T00391039





000
SAUS43 KUNR 101257
MTRD07
METAR KD07 101256Z AUTO 29011KT 01/M04 A2983 RMK AO1 SLP126
T00111039





000
SAUS43 KUNR 101257
MTRD07
METAR KD07 101256Z AUTO 29011KT 01/M04 A2983 RMK AO1 SLP126
T00111039





000
SAUS43 KUNR 101158
MTR2WX
METAR K2WX 101156Z AUTO 30016KT 03/M03 A2978 RMK AO1 SLP101
T00281033 10028 20000 56012





000
SAUS43 KUNR 101158
MTRD07
METAR KD07 101156Z AUTO 29009KT 01/M04 A2984 RMK AO1 SLP129
T00111039 10017 21022 55013





000
SAUS43 KUNR 101158
MTRD07
METAR KD07 101156Z AUTO 29009KT 01/M04 A2984 RMK AO1 SLP129
T00111039 10017 21022 55013





000
SAUS43 KUNR 101158
MTR2WX
METAR K2WX 101156Z AUTO 30016KT 03/M03 A2978 RMK AO1 SLP101
T00281033 10028 20000 56012





000
SAUS43 KUNR 101058
MTR2WX
METAR K2WX 101056Z AUTO 27012KT 00/M04 A2979 RMK AO1 SLP105
T00001044





000
SAUS43 KUNR 101058
MTR2WX
METAR K2WX 101056Z AUTO 27012KT 00/M04 A2979 RMK AO1 SLP105
T00001044





000
SAUS43 KUNR 101057
MTRD07
METAR KD07 101056Z AUTO 29012KT 01/M04 A2984 RMK AO1 SLP128
T00111039





000
SAUS43 KUNR 101057
MTRD07
METAR KD07 101056Z AUTO 29012KT 01/M04 A2984 RMK AO1 SLP128
T00111039





000
SAUS43 KUNR 100958
MTR2WX
METAR K2WX 100956Z AUTO 29010KT 02/M04 A2981 RMK AO1 SLP109
T00171039





000
SAUS43 KUNR 100958
MTR2WX
METAR K2WX 100956Z AUTO 29010KT 02/M04 A2981 RMK AO1 SLP109
T00171039





000
SAUS43 KUNR 100957
MTRD07
METAR KD07 100956Z AUTO 30011KT 01/M03 A2986 RMK AO1 SLP132
T00111033





000
SAUS43 KUNR 100858
MTRD07
METAR KD07 100856Z AUTO 23003KT 00/M04 A2989 RMK AO1 SLP144
T00001039 56024





000
SAUS43 KUNR 100858
MTRD07
METAR KD07 100856Z AUTO 23003KT 00/M04 A2989 RMK AO1 SLP144
T00001039 56024





000
SAUS43 KUNR 100857
MTR2WX
METAR K2WX 100856Z AUTO 29011KT 02/M03 A2982 RMK AO1 SLP113
T00221033 56024





000
SAUS43 KUNR 100857
MTR2WX
METAR K2WX 100856Z AUTO 29011KT 02/M03 A2982 RMK AO1 SLP113
T00221033 56024





000
SAUS43 KUNR 100757
MTRD07
METAR KD07 100756Z AUTO 25005KT M01/M04 A2990 RMK AO1 SLP151
T10061044





000
SAUS43 KUNR 100757
MTR2WX
METAR K2WX 100756Z AUTO 28011KT 02/M03 A2984 RMK AO1 SLP122
T00171033





000
SAUS43 KUNR 100757
MTR2WX
METAR K2WX 100756Z AUTO 28011KT 02/M03 A2984 RMK AO1 SLP122
T00171033





000
SAUS43 KUNR 100657
MTRD07
METAR KD07 100656Z AUTO 22005KT M01/M04 A2994 RMK AO1 SLP169
T10111044 400671044





000
SAUS43 KUNR 100657
MTR2WX
METAR K2WX 100656Z AUTO 28012KT 02/M03 A2987 RMK AO1 SLP130
T00171033 400941050





000
SAUS43 KUNR 100657
MTRD07
METAR KD07 100656Z AUTO 22005KT M01/M04 A2994 RMK AO1 SLP169
T10111044 400671044





000
SAUS43 KUNR 100657
MTR2WX
METAR K2WX 100656Z AUTO 28012KT 02/M03 A2987 RMK AO1 SLP130
T00171033 400941050





000
SAUS43 KUNR 100557
MTR2WX
METAR K2WX 100556Z AUTO 29010KT 02/M03 A2990 RMK AO1 SLP142
T00171028 10072 21006 58021





000
SAUS43 KUNR 100557
MTR2WX
METAR K2WX 100556Z AUTO 29010KT 02/M03 A2990 RMK AO1 SLP142
T00171028 10072 21006 58021





000
SAUS43 KUNR 100557
MTRD07
METAR KD07 100556Z AUTO 20009KT 00/M05 A2996 RMK AO1 SLP178
T00001050 10039 21022 58024





000
SAUS43 KUNR 100557
MTRD07
METAR KD07 100556Z AUTO 20009KT 00/M05 A2996 RMK AO1 SLP178
T00001050 10039 21022 58024





000
SAUS43 KUNR 100457
MTR2WX
METAR K2WX 100456Z AUTO 29011KT 02/M03 A2992 RMK AO1 SLP151
T00221028





000
SAUS43 KUNR 100457
MTRD07
METAR KD07 100456Z AUTO 21007KT M01/M06 A3000 RMK AO1 SLP193
T10111056





000
SAUS43 KUNR 100457
MTRD07
METAR KD07 100456Z AUTO 21007KT M01/M06 A3000 RMK AO1 SLP193
T10111056





000
SAUS43 KUNR 100457
MTR2WX
METAR K2WX 100456Z AUTO 29011KT 02/M03 A2992 RMK AO1 SLP151
T00221028





000
SAUS43 KUNR 100358
MTRD07
METAR KD07 100356Z AUTO 19007KT 00/M06 A3002 RMK AO1 SLP201
T00001061





000
SAUS43 KUNR 100358 COR
MTR2WX
METAR K2WX 100356Z AUTO 27008KT 00/M03 A2994 RMK AO1 SLP163
T00001033





000
SAUS43 KUNR 100258 COR
MTR2WX
METAR K2WX 100256Z AUTO 26007KT 01/M03 A2996 RMK AO1 SLP175
T00061033 58021





000
SAUS43 KUNR 100257
MTRD07
METAR KD07 100256Z AUTO 18005KT 00/M06 A3004 RMK AO1 SLP208
T00001056 58017





000
SAUS43 KUNR 100157
MTRD07
METAR KD07 100156Z AUTO 06004KT 02/M06 A3007 RMK AO1 SLP215
T00221061





000
SAUS43 KUNR 100157
MTR2WX
METAR K2WX 100156Z AUTO 24005KT 03/M03 A2999 RMK AO1 SLP184
T00331028





000
SAUS43 KUNR 100057
MTR2WX
METAR K2WX 100056Z AUTO 33005KT 06/M02 A3001 RMK AO1 SLP188
T00611022





000
SAUS43 KUNR 100057
MTRD07
METAR KD07 100056Z AUTO 04004KT 04/M06 A3009 RMK AO1 SLP220
T00391056





000
SAUS43 KUNR 100057
MTRD07
METAR KD07 100056Z AUTO 04004KT 04/M06 A3009 RMK AO1 SLP220
T00391056





000
SAUS43 KUNR 100057
MTR2WX
METAR K2WX 100056Z AUTO 33005KT 06/M02 A3001 RMK AO1 SLP188
T00611022





000
SAUS43 KUNR 092357
MTR2WX
METAR K2WX 092356Z AUTO 33008KT 07/M02 A3003 RMK AO1 SLP195
T00721017 10094 20067 56008





000
SAUS43 KUNR 092357
MTRD07
METAR KD07 092356Z AUTO 03006KT 04/M04 A3009 RMK AO1 SLP219
T00441044 10067 21017 56004





000
SAUS43 KUNR 092357
MTR2WX
METAR K2WX 092356Z AUTO 33008KT 07/M02 A3003 RMK AO1 SLP195
T00721017 10094 20067 56008





000
SAUS43 KUNR 092357
MTRD07
METAR KD07 092356Z AUTO 03006KT 04/M04 A3009 RMK AO1 SLP219
T00441044 10067 21017 56004





000
SAUS43 KUNR 092257
MTR2WX
METAR K2WX 092256Z AUTO 32010KT 09/M02 A3004 RMK AO1 SLP194
T00941017





000
SAUS43 KUNR 092257
MTR2WX
METAR K2WX 092256Z AUTO 32010KT 09/M02 A3004 RMK AO1 SLP194
T00941017





000
SAUS43 KUNR 092257
MTRD07
METAR KD07 092256Z AUTO 36008KT 06/M04 A3010 RMK AO1 SLP219
T00561044





000
SAUS43 KUNR 092257
MTRD07
METAR KD07 092256Z AUTO 36008KT 06/M04 A3010 RMK AO1 SLP219
T00561044





000
SAUS43 KUNR 092157
MTR2WX
METAR K2WX 092156Z AUTO 32013KT 08/M01 A3004 RMK AO1 SLP197
T00831011





000
SAUS43 KUNR 092157
MTR2WX
METAR K2WX 092156Z AUTO 32013KT 08/M01 A3004 RMK AO1 SLP197
T00831011





000
SAUS43 KUNR 092157
MTRD07
METAR KD07 092156Z AUTO 33013KT 06/M05 A3010 RMK AO1 SLP218
T00611050





000
SAUS43 KUNR 092157
MTRD07
METAR KD07 092156Z AUTO 33013KT 06/M05 A3010 RMK AO1 SLP218
T00611050





000
SAUS43 KUNR 092058
MTRD07
METAR KD07 092056Z AUTO 32013G18KT 06/M05 A3011 RMK AO1 SLP221
T00561050 57029





000
SAUS43 KUNR 092057
MTR2WX
METAR K2WX 092056Z AUTO 31019G26KT 09/M02 A3006 RMK AO1 PK WND
32026/2052 SLP202 T00891017 56024





000
SAUS43 KUNR 091957
MTR2WX
METAR K2WX 091956Z AUTO 31021KT 08/M01 A3008 RMK AO1 SLP208
T00831011





000
SAUS43 KUNR 091957
MTRD07
METAR KD07 091956Z AUTO 21006KT 03/M05 A3014 RMK AO1 SLP235
T00281050





000
SAUS43 KUNR 091957
MTR2WX
METAR K2WX 091956Z AUTO 31021KT 08/M01 A3008 RMK AO1 SLP208
T00831011





000
SAUS43 KUNR 091957
MTRD07
METAR KD07 091956Z AUTO 21006KT 03/M05 A3014 RMK AO1 SLP235
T00281050





000
SAUS43 KUNR 091858
MTRD07
METAR KD07 091856Z AUTO 20007KT 00/M06 A3017 RMK AO1 SLP251
T00001061





000
SAUS43 KUNR 091858
MTRD07
METAR KD07 091856Z AUTO 20007KT 00/M06 A3017 RMK AO1 SLP251
T00001061





000
SAUS43 KUNR 091857
MTR2WX
METAR K2WX 091856Z AUTO 30020G25KT 08/M01 A3010 RMK AO1 PK WND
32026/1815 SLP215 T00781011





000
SAUS43 KUNR 091857
MTR2WX
METAR K2WX 091856Z AUTO 30020G25KT 08/M01 A3010 RMK AO1 PK WND
32026/1815 SLP215 T00781011





000
SAUS43 KUNR 091758
MTR2WX
METAR K2WX 091756Z AUTO 31019KT 07/M02 A3013 RMK AO1 PK WND
32026/1739 SLP228 T00671017 10067 21044 51007





000
SAUS43 KUNR 091757
MTRD07
METAR KD07 091756Z AUTO 20012KT M02/M07 A3020 RMK AO1 SLP261
T10171072 11017 21044 58001





000
SAUS43 KUNR 091658
MTR2WX
METAR K2WX 091656Z AUTO 31020KT 06/M02 A3013 RMK AO1 SLP228
T00561017





000
SAUS43 KUNR 091658
MTR2WX
METAR K2WX 091656Z AUTO 31020KT 06/M02 A3013 RMK AO1 SLP228
T00561017





000
SAUS43 KUNR 091657
MTRD07
METAR KD07 091656Z AUTO 19013KT M03/M08 A3021 RMK AO1 SLP266
T10331083





000
SAUS43 KUNR 091657
MTRD07
METAR KD07 091656Z AUTO 19013KT M03/M08 A3021 RMK AO1 SLP266
T10331083





000
SAUS43 KUNR 091558
MTR2WX
METAR K2WX 091556Z AUTO 30017KT 04/M02 A3013 RMK AO1 SLP227
T00441017





000
SAUS43 KUNR 091557
MTRD07
METAR KD07 091556Z AUTO 16013KT M04/M09 A3022 RMK AO1 SLP269
T10441089





000
SAUS43 KUNR 091458
MTRD07
METAR KD07 091456Z AUTO 14012KT M04/M09 A3021 RMK AO1 SLP265
T10441089 58003





000
SAUS43 KUNR 091458
MTR2WX
METAR K2WX 091456Z AUTO 28008KT 01/M03 A3011 RMK AO1 SLP225
T00061033 58004





000
SAUS43 KUNR 091358
MTR2WX
METAR K2WX 091356Z AUTO 29009KT M02/M05 A3012 RMK AO1 SLP228
T10171050





000
SAUS43 KUNR 091357
MTRD07
METAR KD07 091356Z AUTO 14008KT M04/M08 A3021 RMK AO1 SLP267
T10441083





000
SAUS43 KUNR 091258
MTR2WX
METAR K2WX 091256Z AUTO 30007KT M02/M08 A3012 RMK AO1 SLP230
T10221078





000
SAUS43 KUNR 091258
MTR2WX
METAR K2WX 091256Z AUTO 30007KT M02/M08 A3012 RMK AO1 SLP230
T10221078





000
SAUS43 KUNR 091257
MTRD07
METAR KD07 091256Z AUTO 12005KT M03/M09 A3022 RMK AO1 SLP267
T10331089





000
SAUS43 KUNR 091257
MTRD07
METAR KD07 091256Z AUTO 12005KT M03/M09 A3022 RMK AO1 SLP267
T10331089





000
SAUS43 KUNR 091158
MTR2WX
METAR K2WX 091156Z AUTO 23005KT M04/M09 A3012 RMK AO1 SLP231
T10391094 10000 21050 58009





000
SAUS43 KUNR 091158
MTR2WX
METAR K2WX 091156Z AUTO 23005KT M04/M09 A3012 RMK AO1 SLP231
T10391094 10000 21050 58009





000
SAUS43 KUNR 091157
MTRD07
METAR KD07 091156Z AUTO 06004KT M03/M09 A3022 RMK AO1 SLP265
T10281089 11011 21028 56006





000
SAUS43 KUNR 091157
MTRD07
METAR KD07 091156Z AUTO 06004KT M03/M09 A3022 RMK AO1 SLP265
T10281089 11011 21028 56006





000
SAUS43 KUNR 091058
MTRD07
METAR KD07 091056Z AUTO 05005KT M02/M08 A3022 RMK AO1 SLP265
T10221083





000
SAUS43 KUNR 091058
MTRD07
METAR KD07 091056Z AUTO 05005KT M02/M08 A3022 RMK AO1 SLP265
T10221083





000
SAUS43 KUNR 091057
MTR2WX
METAR K2WX 091056Z AUTO 29003KT M04/M10 A3014 RMK AO1 SLP236
T10391100





000
SAUS43 KUNR 091057
MTR2WX
METAR K2WX 091056Z AUTO 29003KT M04/M10 A3014 RMK AO1 SLP236
T10391100





000
SAUS43 KUNR 090957
MTR2WX
METAR K2WX 090956Z AUTO 26005KT M04/M10 A3014 RMK AO1 SLP237
T10441100





000
SAUS43 KUNR 090957
MTRD07
METAR KD07 090956Z AUTO 35006KT M02/M09 A3022 RMK AO1 SLP264
T10171089





000
SAUS43 KUNR 090857
MTRD07
METAR KD07 090856Z AUTO 34006KT M02/M09 A3023 RMK AO1 SLP268
T10171089 53000





000
SAUS43 KUNR 090857
MTR2WX
METAR K2WX 090856Z AUTO 24004KT M05/M10 A3015 RMK AO1 SLP243
T10501100 56005





000
SAUS43 KUNR 090758
MTRD07
METAR KD07 090756Z AUTO 31004KT M02/M09 A3023 RMK AO1 SLP267
T10171089





000
SAUS43 KUNR 090757
MTR2WX
METAR K2WX 090756Z AUTO 00000KT M02/M11 A3015 RMK AO1 SLP240
T10221106





000
SAUS43 KUNR 090658
MTRD07
METAR KD07 090656Z AUTO 36008KT M01/M09 A3023 RMK AO1 SLP266
T10111094 400391061





000
SAUS43 KUNR 090658
MTRD07
METAR KD07 090656Z AUTO 36008KT M01/M09 A3023 RMK AO1 SLP266
T10111094 400391061





000
SAUS43 KUNR 090657
MTR2WX
METAR K2WX 090656Z AUTO 35004KT 00/M11 A3016 RMK AO1 SLP241
T00001111 400441067





000
SAUS43 KUNR 090558
MTRD07
METAR KD07 090556Z AUTO 34008KT M01/M10 A3023 RMK AO1 SLP270
T10111100 10017 21011 51004





000
SAUS43 KUNR 090557
MTR2WX
METAR K2WX 090556Z AUTO 32007KT M02/M11 A3017 RMK AO1 SLP247
T10171106 10039 21033 53001





000
SAUS43 KUNR 090458
MTR2WX
METAR K2WX 090456Z AUTO 28005KT M03/M10 A3016 RMK AO1 SLP248
T10281100





000
SAUS43 KUNR 090457
MTRD07
METAR KD07 090456Z AUTO 34010KT M01/M11 A3023 RMK AO1 SLP270
T10061106





000
SAUS43 KUNR 090457
MTRD07
METAR KD07 090456Z AUTO 34010KT M01/M11 A3023 RMK AO1 SLP270
T10061106





000
SAUS43 KUNR 090358
MTR2WX
METAR K2WX 090356Z AUTO 34005KT M01/M11 A3016 RMK AO1 SLP249
T10061106





000
SAUS43 KUNR 090357
MTRD07
METAR KD07 090356Z AUTO 35009KT M01/M10 A3022 RMK AO1 SLP271
T10061100





000
SAUS43 KUNR 090357
MTRD07
METAR KD07 090356Z AUTO 35009KT M01/M10 A3022 RMK AO1 SLP271
T10061100





000
SAUS43 KUNR 090259 COR
MTR2WX
METAR K2WX 090256Z AUTO 31004KT 01/M11 A3017 RMK AO1 SLP251
T00061111 56008





000
SAUS43 KUNR 090259 COR
MTR2WX
METAR K2WX 090256Z AUTO 31004KT 01/M11 A3017 RMK AO1 SLP251
T00061111 56008





000
SAUS43 KUNR 090258 COR
MTR2WX
METAR K2WX 090256Z AUTO 31004KT 01/M11 A3017 RMK AO1 SLP251
T00061111 56008





000
SAUS43 KUNR 090258
MTRD07
METAR KD07 090256Z AUTO 34011KT 00/M11 A3022 RMK AO1 SLP269
T00001106 58002





000
SAUS43 KUNR 090157
MTR2WX
METAR K2WX 090156Z AUTO 33007KT 02/M11 A3018 RMK AO1 SLP255
T00221106





000
SAUS43 KUNR 090157
MTRD07
METAR KD07 090156Z AUTO 34012KT 01/M11 A3022 RMK AO1 SLP273
T00061111





000
SAUS43 KUNR 090057
MTR2WX
METAR K2WX 090056Z AUTO 34011KT 03/M12 A3018 RMK AO1 SLP254
T00281117





000
SAUS43 KUNR 090057
MTRD07
METAR KD07 090056Z AUTO 33011KT 01/M11 A3024 RMK AO1 SLP276
T00061106





000
SAUS43 KUNR 090057
MTR2WX
METAR K2WX 090056Z AUTO 34011KT 03/M12 A3018 RMK AO1 SLP254
T00281117





000
SAUS43 KUNR 090057
MTRD07
METAR KD07 090056Z AUTO 33011KT 01/M11 A3024 RMK AO1 SLP276
T00061106





000
SAUS43 KUNR 082358
MTRD07
METAR KD07 082356Z AUTO 33013KT 02/M12 A3022 RMK AO1 SLP271
T00171117 10039 20006 55000





000
SAUS43 KUNR 082358
MTRD07
METAR KD07 082356Z AUTO 33013KT 02/M12 A3022 RMK AO1 SLP271
T00171117 10039 20006 55000





000
SAUS43 KUNR 082357
MTR2WX
METAR K2WX 082356Z AUTO 34014KT 04/M12 A3019 RMK AO1 SLP258
T00391122 10044 20011 55004





000
SAUS43 KUNR 082357
MTR2WX
METAR K2WX 082356Z AUTO 34014KT 04/M12 A3019 RMK AO1 SLP258
T00391122 10044 20011 55004





000
SAUS43 KUNR 082300 COR
MTR2WX
METAR K2WX 082256Z AUTO 33014KT 04/M12 A3019 RMK AO1 SLP254
T00391122





000
SAUS43 KUNR 082300 COR
MTR2WX
METAR K2WX 082256Z AUTO 33014KT 04/M12 A3019 RMK AO1 SLP254
T00391122





000
SAUS43 KUNR 082258 COR
MTR2WX
METAR K2WX 082256Z AUTO 33014KT 04/M12 A3019 RMK AO1 SLP254
T00391122





000
SAUS43 KUNR 082258
MTRD07
METAR KD07 082256Z AUTO 33018KT 02/M13 A3022 RMK AO1 PK WND
34029/2223 SLP270 T00221128





000
SAUS43 KUNR 082257
MTR2WX
METAR K2WX 082256Z AUTO 33014KT 04/M12 A3019 RMK AO1 SLP254
T00391122





000
SAUS43 KUNR 082257
MTR2WX
METAR K2WX 082256Z AUTO 33014KT 04/M12 A3019 RMK AO1 SLP254
T00391122





000
SAUS43 KUNR 082158
MTRD07
METAR KD07 082156Z AUTO 33021KT 03/M13 A3022 RMK AO1 PK WND
33031/2115 SLP268 T00281128





000
SAUS43 KUNR 082157
MTR2WX
METAR K2WX 082156Z AUTO 32016KT 04/M13 A3019 RMK AO1 PK WND
31027/2107 SLP256 T00441128





000
SAUS43 KUNR 082101 COR
MTR2WX
METAR K2WX 082056Z AUTO 31020G26KT 03/M13 A3020 RMK AO1 PK WND
30029/2015 SLP261 T00331133 56019





000
SAUS43 KUNR 082058 COR
MTR2WX
METAR K2WX 082056Z AUTO 31020G26KT 03/M13 A3020 RMK AO1 PK WND
30029/2015 SLP261 T00331133 56019





000
SAUS43 KUNR 082058
MTRD07
METAR KD07 082056Z AUTO 32021G28KT 03/M12 A3022 RMK AO1 PK WND
31033/2032 SLP268 T00281122 56023





000
SAUS43 KUNR 081957
MTR2WX
METAR K2WX 081956Z AUTO 31019G29KT 03/M13 A3022 RMK AO1 PK WND
31031/1940 SLP264 T00331133





000
SAUS43 KUNR 081957
MTRD07
METAR KD07 081956Z AUTO 32025G32KT 03/M12 A3025 RMK AO1 PK WND
32034/1902 SLP275 T00281122





000
SAUS43 KUNR 081857
MTR2WX
METAR K2WX 081856Z AUTO 31020G27KT 02/M12 A3024 RMK AO1 PK WND
31028/1843 SLP273 T00221122





000
SAUS43 KUNR 081857
MTRD07
METAR KD07 081856Z AUTO 33023G34KT 03/M12 A3026 RMK AO1 PK WND
33034/1852 SLP278 T00281117





000
SAUS43 KUNR 081857
MTRD07
METAR KD07 081856Z AUTO 33023G34KT 03/M12 A3026 RMK AO1 PK WND
33034/1852 SLP278 T00281117





000
SAUS43 KUNR 081857
MTR2WX
METAR K2WX 081856Z AUTO 31020G27KT 02/M12 A3024 RMK AO1 PK WND
31028/1843 SLP273 T00221122





000
SAUS43 KUNR 081806 COR
MTRD07
METAR KD07 081756Z AUTO 32020G27KT 01/M11 A3030 RMK AO1 PK WND
32030/1727 SLP294 T00061106 10006 21061 58009





000
SAUS43 KUNR 081802 COR
MTRD07
METAR KD07 081756Z AUTO 32020G27KT 01/M11 A3030 RMK AO1 PK WND
32030/1727 SLP294 T00061106 10006 21061 58009





000
SAUS43 KUNR 081800 COR
MTRD07
METAR KD07 081756Z AUTO 32020G27KT 01/M11 A3030 RMK AO1 PK WND
32030/1727 SLP294 T00061106 10006 21061 58009





000
SAUS43 KUNR 081758
MTRD07
METAR KD07 081756Z AUTO 32020G27KT 01/M11 A3030 RMK AO1 PK WND
32030/1727 SLP294 T00061106 10006 21061 58009





000
SAUS43 KUNR 081757
MTR2WX
METAR K2WX 081756Z AUTO 30018KT 01/M12 A3027 RMK AO1 SLP282
T00111122 10011 21067 58008





000
SAUS43 KUNR 081658
MTR2WX
METAR K2WX 081656Z AUTO 30018KT 01/M11 A3029 RMK AO1 SLP290
T00061106





000
SAUS43 KUNR 081657
MTRD07
METAR KD07 081656Z AUTO 32020G26KT M01/M10 A3032 RMK AO1 PK WND
32029/1646 SLP302 T10111100





000
SAUS43 KUNR 081559 COR
MTR2WX
METAR K2WX 081556Z AUTO 29015KT M02/M10 A3029 RMK AO1 SLP296
T10221100





000
SAUS43 KUNR 081558 COR
MTR2WX
METAR K2WX 081556Z AUTO 29015KT M02/M10 A3029 RMK AO1 SLP296
T10221100





000
SAUS43 KUNR 081558
MTRD07
METAR KD07 081556Z AUTO 31020KT M03/M10 A3031 RMK AO1 SLP302
T10331100





000
SAUS43 KUNR 081457
MTR2WX
METAR K2WX 081456Z AUTO 29010KT M04/M10 A3029 RMK AO1 SLP297
T10391100 51007





000
SAUS43 KUNR 081457
MTRD07
METAR KD07 081456Z AUTO 30018KT M04/M11 A3033 RMK AO1 SLP307
T10441106 53010





000
SAUS43 KUNR 081358
MTRD07
METAR KD07 081356Z AUTO 31015KT M06/M11 A3031 RMK AO1 SLP304
T10611106





000
SAUS43 KUNR 081358
MTRD07
METAR KD07 081356Z AUTO 31015KT M06/M11 A3031 RMK AO1 SLP304
T10611106





000
SAUS43 KUNR 081357
MTR2WX
METAR K2WX 081356Z AUTO 27009KT M06/M11 A3029 RMK AO1 SLP298
T10561106





000
SAUS43 KUNR 081357
MTR2WX
METAR K2WX 081356Z AUTO 27009KT M06/M11 A3029 RMK AO1 SLP298
T10561106





000
SAUS43 KUNR 081257
MTRD07
METAR KD07 081256Z AUTO 31015KT M06/M11 A3029 RMK AO1 SLP295
T10561106





000
SAUS43 KUNR 081257
MTRD07
METAR KD07 081256Z AUTO 31015KT M06/M11 A3029 RMK AO1 SLP295
T10561106





000
SAUS43 KUNR 081257
MTR2WX
METAR K2WX 081256Z AUTO 26008KT M06/M11 A3028 RMK AO1 SLP292
T10561106





000
SAUS43 KUNR 081257
MTR2WX
METAR K2WX 081256Z AUTO 26008KT M06/M11 A3028 RMK AO1 SLP292
T10561106





000
SAUS43 KUNR 081157
MTR2WX
METAR K2WX 081156Z AUTO 26009KT M07/M11 A3027 RMK AO1 SLP289
T10671111 11022 21067 51009





000
SAUS43 KUNR 081157
MTR2WX
METAR K2WX 081156Z AUTO 26009KT M07/M11 A3027 RMK AO1 SLP289
T10671111 11022 21067 51009





000
SAUS43 KUNR 081157
MTRD07
METAR KD07 081156Z AUTO 31018KT M06/M11 A3029 RMK AO1 SLP296
T10561106 11017 21056 51016





000
SAUS43 KUNR 081157
MTRD07
METAR KD07 081156Z AUTO 31018KT M06/M11 A3029 RMK AO1 SLP296
T10561106 11017 21056 51016





000
SAUS43 KUNR 081057
MTR2WX
METAR K2WX 081056Z AUTO 31017KT M05/M11 A3026 RMK AO1 PK WND
32029/1024 SLP283 T10501111





000
SAUS43 KUNR 081057
MTRD07
METAR KD07 081056Z AUTO 31014KT M06/M10 A3029 RMK AO1 SLP295
T10561100





000
SAUS43 KUNR 081057
MTR2WX
METAR K2WX 081056Z AUTO 31017KT M05/M11 A3026 RMK AO1 PK WND
32029/1024 SLP283 T10501111





000
SAUS43 KUNR 081057
MTRD07
METAR KD07 081056Z AUTO 31014KT M06/M10 A3029 RMK AO1 SLP295
T10561100





000
SAUS43 KUNR 080957
MTRD07
METAR KD07 080956Z AUTO 32014KT M05/M10 A3027 RMK AO1 SLP283
T10501100





000
SAUS43 KUNR 080957
MTR2WX
METAR K2WX 080956Z AUTO 31020KT M05/M11 A3026 RMK AO1 SLP280
T10501106





000
SAUS43 KUNR 080857
MTRD07
METAR KD07 080856Z AUTO 33017KT M04/M10 A3024 RMK AO1 PK WND
33026/0801 SLP274 T10441100 51011





000
SAUS43 KUNR 080857
MTR2WX
METAR K2WX 080856Z AUTO 31016KT M05/M11 A3024 RMK AO1 PK WND
33030/0813 SLP272 T10501106 53005





000
SAUS43 KUNR 080857
MTRD07
METAR KD07 080856Z AUTO 33017KT M04/M10 A3024 RMK AO1 PK WND
33026/0801 SLP274 T10441100 51011





000
SAUS43 KUNR 080758
MTRD07
METAR KD07 080756Z AUTO 33020G26KT M03/M10 A3024 RMK AO1 PK WND
33029/0738 SLP272 T10331100





000
SAUS43 KUNR 080757
MTR2WX
METAR K2WX 080756Z AUTO 33022G31KT M03/M11 A3021 RMK AO1 PK WND
33034/0720 SLP261 T10281106





000
SAUS43 KUNR 080658
MTRD07
METAR KD07 080656Z AUTO 32023G31KT M03/M09 A3023 RMK AO1 PK WND
32033/0557 SLP271 T10281094 400331028





000
SAUS43 KUNR 080658
MTRD07
METAR KD07 080656Z AUTO 32023G31KT M03/M09 A3023 RMK AO1 PK WND
32033/0557 SLP271 T10281094 400331028





000
SAUS43 KUNR 080657
MTR2WX
METAR K2WX 080656Z AUTO 32026G32KT M02/M11 A3022 RMK AO1 PK WND
32035/0609 SLP262 T10221106 400441028





000
SAUS43 KUNR 080657
MTR2WX
METAR K2WX 080656Z AUTO 32026G32KT M02/M11 A3022 RMK AO1 PK WND
32035/0609 SLP262 T10221106 400441028





000
SAUS43 KUNR 080558
MTRD07
METAR KD07 080556Z AUTO 32026G32KT M02/M09 A3021 RMK AO1 PK WND
32035/0521 SLP261 T10221094 10011 21022 50007





000
SAUS43 KUNR 080557
MTR2WX
METAR K2WX 080556Z AUTO 31024KT M03/M10 A3022 RMK AO1 PK WND
31029/0556 SLP266 T10281100 10011 21028 55000





000
SAUS43 KUNR 080457
MTR2WX
METAR K2WX 080456Z AUTO 31024G31KT M02/M10 A3022 RMK AO1 PK WND
31032/0421 SLP263 T10221100





000
SAUS43 KUNR 080457
MTRD07
METAR KD07 080456Z AUTO 32027G35KT M01/M10 A3021 RMK AO1 PK WND
31038/0421 SLP263 T10111100





000
SAUS43 KUNR 080457
MTRD07
METAR KD07 080456Z AUTO 32027G35KT M01/M10 A3021 RMK AO1 PK WND
31038/0421 SLP263 T10111100





000
SAUS43 KUNR 080457
MTR2WX
METAR K2WX 080456Z AUTO 31024G31KT M02/M10 A3022 RMK AO1 PK WND
31032/0421 SLP263 T10221100





000
SAUS43 KUNR 080357
MTR2WX
METAR K2WX 080356Z AUTO 31025G33KT M02/M10 A3022 RMK AO1 PK WND
31033/0355 SLP265 T10171100





000
SAUS43 KUNR 080357
MTRD07
METAR KD07 080356Z AUTO 32030G39KT M01/M09 A3020 RMK AO1 PK WND
32039/0348 SLP259 T10061094





000
SAUS43 KUNR 080357
MTRD07
METAR KD07 080356Z AUTO 32030G39KT M01/M09 A3020 RMK AO1 PK WND
32039/0348 SLP259 T10061094





000
SAUS43 KUNR 080302 COR
MTR2WX
METAR K2WX 080256Z AUTO 31022G29KT M02/M10 A3022 RMK AO1 PK WND
32030/0237 SLP266 T10171100 51018





000
SAUS43 KUNR 080302 COR
MTR2WX
METAR K2WX 080256Z AUTO 31022G29KT M02/M10 A3022 RMK AO1 PK WND
32030/0237 SLP266 T10171100 51018





000
SAUS43 KUNR 080301 COR
MTR2WX
METAR K2WX 080256Z AUTO 31022G29KT M02/M10 A3022 RMK AO1 PK WND
32030/0237 SLP266 T10171100 51018





000
SAUS43 KUNR 080258 COR
MTR2WX
METAR K2WX 080256Z AUTO 31022G29KT M02/M10 A3022 RMK AO1 PK WND
32030/0237 SLP266 T10171100 51018





000
SAUS43 KUNR 080258 COR
MTR2WX
METAR K2WX 080256Z AUTO 31022G29KT M02/M10 A3022 RMK AO1 PK WND
32030/0237 SLP266 T10171100 51018





000
SAUS43 KUNR 080258
MTRD07
METAR KD07 080256Z AUTO 32029G38KT M01/M10 A3019 RMK AO1 PK WND
31041/0157 SLP253 T10061100 51009





000
SAUS43 KUNR 080158
MTRD07
METAR KD07 080156Z AUTO 32026G34KT 00/M11 A3017 RMK AO1 PK WND
33038/0101 SLP248 T00001106





000
SAUS43 KUNR 080157
MTR2WX
METAR K2WX 080156Z AUTO 31022KT M01/M10 A3021 RMK AO1 PK WND
32036/0111 SLP262 T10111100





000
SAUS43 KUNR 080058
MTRD07
METAR KD07 080056Z AUTO 32028G41KT 01/M11 A3017 RMK AO1 PK WND
32045/0001 SLP246 T00061106





000
SAUS43 KUNR 080058
MTRD07
METAR KD07 080056Z AUTO 32028G41KT 01/M11 A3017 RMK AO1 PK WND
32045/0001 SLP246 T00061106





000
SAUS43 KUNR 080057
MTR2WX
METAR K2WX 080056Z AUTO 31024G32KT M01/M11 A3019 RMK AO1 PK WND
32046/2357 SLP255 T10061111





000
SAUS43 KUNR 080057
MTR2WX
METAR K2WX 080056Z AUTO 31024G32KT M01/M11 A3019 RMK AO1 PK WND
32046/2357 SLP255 T10061111





000
SAUS43 KUNR 080002 COR
MTR2WX
METAR K2WX 072356Z AUTO 32029G43KT 01/M11 A3016 RMK AO1 PK WND
32051/2313 SLP243 T00111111 10044 20011 53030





000
SAUS43 KUNR 080000 COR
MTR2WX
METAR K2WX 072356Z AUTO 32029G43KT 01/M11 A3016 RMK AO1 PK WND
32051/2313 SLP243 T00111111 10044 20011 53030





000
SAUS43 KUNR 072358 COR
MTR2WX
METAR K2WX 072356Z AUTO 32029G43KT 01/M11 A3016 RMK AO1 PK WND
32051/2313 SLP243 T00111111 10044 20011 53030





000
SAUS43 KUNR 072358 COR
MTR2WX
METAR K2WX 072356Z AUTO 32029G43KT 01/M11 A3016 RMK AO1 PK WND
32051/2313 SLP243 T00111111 10044 20011 53030





000
SAUS43 KUNR 072357
MTRD07
METAR KD07 072356Z AUTO 33027G43KT 01/M10 A3016 RMK AO1 PK WND
33048/2318 SLP240 T00111100 10033 20011 51032





000
SAUS43 KUNR 072357
MTRD07
METAR KD07 072356Z AUTO 33027G43KT 01/M10 A3016 RMK AO1 PK WND
33048/2318 SLP240 T00111100 10033 20011 51032





000
SAUS43 KUNR 072258
MTR2WX
METAR K2WX 072256Z AUTO 32037G47KT 03/M12 A3013 RMK AO1 PK WND
31057/2216 SLP226 T00281117





000
SAUS43 KUNR 072258
MTR2WX
METAR K2WX 072256Z AUTO 32037G47KT 03/M12 A3013 RMK AO1 PK WND
31057/2216 SLP226 T00281117





000
SAUS43 KUNR 072257
MTRD07
METAR KD07 072256Z AUTO 32032G49KT 02/M11 A3013 RMK AO1 PK WND
32052/2235 SLP231 T00171111





000
SAUS43 KUNR 072257
MTRD07
METAR KD07 072256Z AUTO 32032G49KT 02/M11 A3013 RMK AO1 PK WND
32052/2235 SLP231 T00171111





000
SAUS43 KUNR 072200 COR
MTR2WX
METAR K2WX 072156Z AUTO 32045G53KT 03/M12 A3009 RMK AO1 PK WND
32062/2119 SLP212 T00281122





000
SAUS43 KUNR 072158 COR
MTR2WX
METAR K2WX 072156Z AUTO 32045G53KT 03/M12 A3009 RMK AO1 PK WND
32062/2119 SLP212 T00281122





000
SAUS43 KUNR 072157
MTRD07
METAR KD07 072156Z AUTO 32039G50KT 02/M11 A3010 RMK AO1 PK WND
32051/2123 SLP220 T00221111





000
SAUS43 KUNR 072058
MTR2WX
METAR K2WX 072056Z AUTO 32044G57KT 04/M13 A3007 RMK AO1 PK WND
31065/2028 SLP205 T00391128 53012





000
SAUS43 KUNR 072058
MTRD07
METAR KD07 072056Z AUTO 32041G53KT 03/M11 A3005 RMK AO1 PK WND
32053/2054 SLP202 T00281106 53011





000
SAUS43 KUNR 071957
MTRD07
METAR KD07 071956Z AUTO 31041G51KT 03/M10 A3004 RMK AO1 PK WND
32055/1916 SLP198 T00281100





000
SAUS43 KUNR 071957
MTR2WX
METAR K2WX 071956Z AUTO 32043G60KT 04/M12 A3004 RMK AO1 PK WND
32063/1931 SLP198 T00391117





000
SAUS43 KUNR 071857
MTR2WX
METAR K2WX 071856Z AUTO 32040G61KT 04/M11 A3004 RMK AO1 PK WND
32061/1851 SLP197 T00391111





000
SAUS43 KUNR 071857
MTRD07
METAR KD07 071856Z AUTO 32040G50KT 03/M09 A3002 RMK AO1 PK WND
31056/1830 SLP191 T00281089





000
SAUS43 KUNR 071757
MTR2WX
METAR K2WX 071756Z AUTO 32049G63KT 03/M11 A3003 RMK AO1 PK WND
32063/1748 SLP190 T00281106 10028 20006 53014





000
SAUS43 KUNR 071757
MTR2WX
METAR K2WX 071756Z AUTO 32049G63KT 03/M11 A3003 RMK AO1 PK WND
32063/1748 SLP190 T00281106 10028 20006 53014





000
SAUS43 KUNR 071757
MTRD07
METAR KD07 071756Z AUTO 31044G53KT 02/M08 A3002 RMK AO1 PK WND
30054/1705 SLP190 T00221083 10028 20006 50016





000
SAUS43 KUNR 071757
MTRD07
METAR KD07 071756Z AUTO 31044G53KT 02/M08 A3002 RMK AO1 PK WND
30054/1705 SLP190 T00221083 10028 20006 50016





000
SAUS43 KUNR 071657
MTRD07
METAR KD07 071656Z AUTO 31039G53KT 01/M09 A3002 RMK AO1 PK WND
31056/1638 SLP190 T00111089





000
SAUS43 KUNR 071657
MTR2WX
METAR K2WX 071656Z AUTO 32049G62KT 03/M11 A3001 RMK AO1 PK WND
32062/1611 SLP185 T00281106





000
SAUS43 KUNR 071657
MTRD07
METAR KD07 071656Z AUTO 31039G53KT 01/M09 A3002 RMK AO1 PK WND
31056/1638 SLP190 T00111089





000
SAUS43 KUNR 071657
MTR2WX
METAR K2WX 071656Z AUTO 32049G62KT 03/M11 A3001 RMK AO1 PK WND
32062/1611 SLP185 T00281106





000
SAUS43 KUNR 071557
MTR2WX
METAR K2WX 071556Z AUTO 31045G56KT 02/M11 A2999 RMK AO1 PK WND
30056/1512 SLP180 T00171106





000
SAUS43 KUNR 071557
MTRD07
METAR KD07 071556Z AUTO 31036G51KT 01/M09 A2999 RMK AO1 PK WND
31056/1505 SLP179 T00061089





    US Dept of Commerce
    National Oceanic and Atmospheric Administration
    National Weather Service
    1325 East West Highway
    Silver Spring, MD 20910
    Page Author: NWS Internet Services Team
Disclaimer
Information Quality
Credits
Glossary
Privacy Policy
Freedom of Information Act (FOIA)
About Us
Career Opportunities